Estación Meteorológica Peña el Pijo (Robertgarden) [ 12/09/19 16:23:57 CET ]

Fecha Hora Presion(HPa) Temp (°C) Humedad % Rocio (°C) Viento ( m/s) Direccion Lluvia 1Hora(mm) Lluvia 24H(mm) LLuvia Total(mm)
2019-Nov-16 01:01:52 996.700 0.6 83 -2.0         27.45
2019-Nov-16 02:01:47 996.900 1.1 84 -1.4         27.45
2019-Nov-16 03:01:43 996.700 1.3 84 -1.2         27.45
2019-Nov-16 04:01:50 996.900 0.6 85 -1.7         27.45
2019-Nov-16 05:05:34 997.500 1.2 85 -1.1         27.45
2019-Nov-16 06:01:46 998.000 0.9 84 -1.6         27.45
2019-Nov-16 07:01:43 998.900 0.9 84 -1.6         27.45
2019-Nov-16 08:01:48 999.800 0.5 83 -2.1         27.45
2019-Nov-16 09:01:28 1000.600 1.3 84 -1.2         27.45
2019-Nov-16 10:01:47 1000.800 4.2 76 0.3         27.45
2019-Nov-16 11:01:48 1001.400 5.3 71 0.5         27.45
2019-Nov-16 12:01:35 1001.400 8.1 58 0.3         27.45
2019-Nov-16 13:01:40 1001.800 7.9 54 -0.9         27.45
2019-Nov-16 14:01:45 1001.600 7.4 55 -1.1 1.0 NNE     27.45
2019-Nov-16 15:01:48 1001.800 7.3 55 -1.2         27.45
2019-Nov-16 16:02:00 1002.400 8.2 53 -0.9         27.45
2019-Nov-16 17:01:47 1002.900 5.9 58 -1.8         27.45
2019-Nov-16 18:01:59 1003.400 3.8 63 -2.6         27.45
2019-Nov-16 19:01:51 1004.000 3.3 67 -2.3         27.45
2019-Nov-16 20:01:46 1004.600 0.9 72 -3.6         27.45
2019-Nov-16 21:01:48 1004.900 1.2 75 -2.8         27.45
2019-Nov-16 22:01:47 1005.000 0.7 77 -2.9         27.45
2019-Nov-16 23:01:51 1004.800 2.4 75 -1.6         27.45

Temperatura Máxima:    Temperatura Mínima:
Presión Máxima:1005.000 Hpa    Presión Mínima:996.700 Hpa


Volver